Currently 66°F in French Valley, California, USA
66°F
69°F / 47°F
calm
0.00"
Sunday, December 9, 2018 4:42 PM PST

French Valley, California Weather Summary
Last 36 Hours

Temperature Winds Hourly Humidity Dewpoint
Time Report Norm Report Norm Max Gusts Precip. Rpt. Norm Rpt. Norm Pressure
1Sun 04:42 PM  65.7°F  62°F  calm  2 mph  none  0.00"  55%  55%  48°F  45°F  30.27"
Sun 04:00 PM  67.8°F  64°F  calm  3 mph  9 mph  0.00"  51%  50%  48°F  44°F  30.26"
Sun 03:00 PM  68.9°F  66°F  5 mph NW  5 mph  8 mph  0.00"  44%  46%  45°F  43°F  30.25"
2Sun 02:24 PM  69.3°F  66°F  2 mph NW  4 mph  7 mph  ----  47%  45%  48°F  43°F  30.24"
Sun 02:00 PM  69.0°F  66°F  5 mph NW  4 mph  10 mph  0.00"  47%  44%  47°F  43°F  30.24"
Sun 01:00 PM  69.1°F  65°F  5 mph NW  4 mph  10 mph  0.00"  46%  46%  47°F  43°F  30.27"
Sun 12:00 PM  66.6°F  64°F  4 mph NW  3 mph  10 mph  0.00"  55%  49%  50°F  43°F  30.32"
Sun 11:00 AM  63.1°F  61°F  4 mph NW  3 mph  8 mph  0.00"  66%  54%  51°F  44°F  30.37"
Sun 10:00 AM  59.3°F  57°F  3 mph NW  3 mph  8 mph  0.00"  72%  62%  50°F  44°F  30.40"
Sun 09:00 AM  55.1°F  53°F  calm  2 mph  5 mph  0.00"  83%  70%  50°F  43°F  30.40"
Sun 08:00 AM  48.9°F  48°F  2 mph N  1 mph  5 mph  0.00"  93%  77%  47°F  41°F  30.39"
Sun 07:00 AM  47.0°F  46°F  1 mph NE  1 mph  5 mph  0.00"  95%  80%  46°F  39°F  30.38"
3Sun 06:50 AM  46.7°F  45°F  calm  1 mph  1 mph  ----  94%  80%  45°F  39°F  30.38"
Sun 06:00 AM  47.5°F  46°F  2 mph NW  1 mph  5 mph  0.00"  92%  80%  45°F  40°F  30.37"
Sun 05:00 AM  47.8°F  46°F  2 mph SE  1 mph  7 mph  0.00"  95%  79%  46°F  40°F  30.37"
Sun 04:00 AM  48.8°F  47°F  calm  1 mph  6 mph  0.00"  95%  79%  47°F  40°F  30.36"
Sun 03:00 AM  50.0°F  47°F  calm  1 mph  6 mph  0.00"  92%  78%  48°F  40°F  30.37"
Sun 02:00 AM  48.8°F  48°F  calm  1 mph  none  0.00"  94%  78%  47°F  41°F  30.38"
Sun 01:00 AM  49.5°F  49°F  calm  1 mph  4 mph  0.00"  94%  77%  48°F  42°F  30.37"
Sun 12:00 AM  49.5°F  49°F  calm  1 mph  none  0.00"  93%  77%  48°F  42°F  30.37"
Sat 11:00 PM  51.4°F  50°F  calm  1 mph  3 mph  0.00"  91%  76%  49°F  43°F  30.38"
Sat 10:00 PM  52.4°F  51°F  calm  1 mph  5 mph  0.00"  93%  75%  50°F  43°F  30.38"
Sat 09:00 PM  54.4°F  52°F  calm  1 mph  5 mph  0.00"  90%  74%  51°F  44°F  30.36"
Sat 08:00 PM  54.9°F  53°F  calm  2 mph  5 mph  0.00"  88%  72%  51°F  44°F  30.34"
Sat 07:00 PM  55.3°F  55°F  5 mph SE  2 mph  7 mph  0.00"  89%  70%  52°F  45°F  30.33"
Sat 06:00 PM  59.9°F  57°F  4 mph SE  2 mph  6 mph  0.00"  78%  64%  53°F  45°F  30.31"
Sat 05:00 PM  65.1°F  60°F  1 mph S  2 mph  none  0.00"  58%  58%  50°F  45°F  30.29"
Sat 04:00 PM  67.9°F  64°F  calm  4 mph  6 mph  0.00"  50%  50%  48°F  45°F  30.27"
Sat 03:00 PM  68.5°F  66°F  2 mph SE  5 mph  8 mph  0.00"  52%  46%  50°F  44°F  30.27"
Sat 02:00 PM  68.2°F  66°F  2 mph NW  4 mph  8 mph  0.00"  54%  44%  50°F  43°F  30.28"
Sat 01:00 PM  66.5°F  65°F  4 mph NW  4 mph  8 mph  0.00"  56%  45%  50°F  43°F  30.29"
Sat 12:00 PM  64.1°F  64°F  4 mph NW  3 mph  10 mph  0.00"  58%  49%  48°F  43°F  30.32"
Sat 11:00 AM  61.6°F  61°F  4 mph NW  3 mph  8 mph  0.00"  67%  53%  50°F  43°F  30.35"
Sat 10:00 AM  57.6°F  58°F  3 mph NW  3 mph  7 mph  0.00"  74%  61%  49°F  44°F  30.38"
Sat 09:00 AM  51.4°F  53°F  2 mph NW  2 mph  5 mph  0.00"  94%  70%  50°F  43°F  30.38"
Sat 08:00 AM  46.8°F  49°F  calm  1 mph  1 mph  0.00"  97%  77%  46°F  41°F  30.37"
Sat 07:00 AM  44.8°F  46°F  calm  1 mph  7 mph  0.00"  97%  80%  44°F  40°F  30.35"
Sat 06:00 AM  45.6°F  46°F  calm  1 mph  5 mph  0.00"  97%  79%  45°F  40°F  30.34"
Sat 05:00 AM  46.3°F  47°F  calm  1 mph  5 mph  0.00"  97%  78%  45°F  40°F  30.33"

  1. Current weather data. No green row appears if the current weather data is also the high or low for the current day.
  2. High temperature for the current day.
  3. Low temperature for the current day.

The French Valley, California weather pages are a service of WeatherCurrents. French Valley is located in southwestern Riverside County, California, north of Temecula, east of Murrieta, and south of Winchester. French Valley is bordered by Lake Skinner.
Copyright ©Sun Dec 09 16:43:27 PST 2018  WeatherCurrents. All rights reserved. - Submit questions and comments - Privacy Policy

This page automatically refreshes every 10 minutes.